sensor_id;sensor_type;location;lat;lon;timestamp;P1;durP1;ratioP1;P2;durP2;ratioP2
39256;SDS011;67272;48.066;11.038;2023-03-11T00:00:20;0.80;;;0.70;;
39256;SDS011;67272;48.066;11.038;2023-03-11T00:02:47;2.90;;;1.00;;
39256;SDS011;67272;48.066;11.038;2023-03-11T00:05:19;0.50;;;0.50;;
39256;SDS011;67272;48.066;11.038;2023-03-11T00:07:46;0.87;;;0.60;;
39256;SDS011;67272;48.066;11.038;2023-03-11T00:10:13;0.90;;;0.90;;
39256;SDS011;67272;48.066;11.038;2023-03-11T00:12:40;0.70;;;0.60;;
39256;SDS011;67272;48.066;11.038;2023-03-11T00:15:06;1.10;;;0.87;;
39256;SDS011;67272;48.066;11.038;2023-03-11T00:17:33;0.80;;;0.73;;
39256;SDS011;67272;48.066;11.038;2023-03-11T00:19:59;0.80;;;0.80;;
39256;SDS011;67272;48.066;11.038;2023-03-11T00:22:26;0.80;;;0.80;;
39256;SDS011;67272;48.066;11.038;2023-03-11T00:24:52;0.80;;;0.80;;
39256;SDS011;67272;48.066;11.038;2023-03-11T00:27:18;1.20;;;0.93;;
39256;SDS011;67272;48.066;11.038;2023-03-11T00:29:45;1.10;;;1.00;;
39256;SDS011;67272;48.066;11.038;2023-03-11T00:32:11;1.23;;;1.10;;
39256;SDS011;67272;48.066;11.038;2023-03-11T00:34:41;1.17;;;1.03;;
39256;SDS011;67272;48.066;11.038;2023-03-11T00:37:07;1.30;;;1.17;;
39256;SDS011;67272;48.066;11.038;2023-03-11T00:39:33;1.37;;;1.20;;
39256;SDS011;67272;48.066;11.038;2023-03-11T00:42:06;1.10;;;1.00;;
39256;SDS011;67272;48.066;11.038;2023-03-11T00:44:32;1.10;;;1.00;;
39256;SDS011;67272;48.066;11.038;2023-03-11T00:47:02;1.10;;;1.00;;
39256;SDS011;67272;48.066;11.038;2023-03-11T00:49:32;1.27;;;1.10;;
39256;SDS011;67272;48.066;11.038;2023-03-11T00:52:08;1.30;;;1.10;;
39256;SDS011;67272;48.066;11.038;2023-03-11T00:54:34;3.33;;;1.00;;
39256;SDS011;67272;48.066;11.038;2023-03-11T00:57:07;1.47;;;1.10;;
39256;SDS011;67272;48.066;11.038;2023-03-11T00:59:33;1.30;;;1.20;;
39256;SDS011;67272;48.066;11.038;2023-03-11T01:02:00;1.23;;;1.10;;
39256;SDS011;67272;48.066;11.038;2023-03-11T01:04:29;0.87;;;0.83;;
39256;SDS011;67272;48.066;11.038;2023-03-11T01:06:58;1.63;;;1.10;;
39256;SDS011;67272;48.066;11.038;2023-03-11T01:09:25;1.40;;;1.30;;
39256;SDS011;67272;48.066;11.038;2023-03-11T01:11:53;1.33;;;1.17;;
39256;SDS011;67272;48.066;11.038;2023-03-11T01:14:19;1.10;;;1.00;;
39256;SDS011;67272;48.066;11.038;2023-03-11T01:16:46;1.33;;;1.23;;
39256;SDS011;67272;48.066;11.038;2023-03-11T01:19:14;1.60;;;1.40;;
39256;SDS011;67272;48.066;11.038;2023-03-11T01:21:40;1.40;;;1.30;;
39256;SDS011;67272;48.066;11.038;2023-03-11T01:24:07;1.30;;;1.20;;
39256;SDS011;67272;48.066;11.038;2023-03-11T01:26:40;1.40;;;1.30;;
39256;SDS011;67272;48.066;11.038;2023-03-11T01:29:06;1.23;;;1.10;;
39256;SDS011;67272;48.066;11.038;2023-03-11T01:31:32;1.30;;;1.20;;
39256;SDS011;67272;48.066;11.038;2023-03-11T01:33:59;1.77;;;1.40;;
39256;SDS011;67272;48.066;11.038;2023-03-11T01:36:28;1.90;;;1.10;;
39256;SDS011;67272;48.066;11.038;2023-03-11T01:38:59;1.60;;;1.43;;
39256;SDS011;67272;48.066;11.038;2023-03-11T01:41:28;1.57;;;1.47;;
39256;SDS011;67272;48.066;11.038;2023-03-11T01:43:54;1.40;;;1.30;;
39256;SDS011;67272;48.066;11.038;2023-03-11T01:46:30;1.57;;;1.20;;
39256;SDS011;67272;48.066;11.038;2023-03-11T01:48:58;1.47;;;1.10;;
39256;SDS011;67272;48.066;11.038;2023-03-11T01:51:43;1.57;;;1.40;;
39256;SDS011;67272;48.066;11.038;2023-03-11T01:54:14;1.40;;;1.30;;
39256;SDS011;67272;48.066;11.038;2023-03-11T01:56:41;1.20;;;1.07;;
39256;SDS011;67272;48.066;11.038;2023-03-11T01:59:11;1.93;;;1.30;;
39256;SDS011;67272;48.066;11.038;2023-03-11T02:01:44;1.33;;;1.03;;
39256;SDS011;67272;48.066;11.038;2023-03-11T02:04:11;1.40;;;1.30;;
39256;SDS011;67272;48.066;11.038;2023-03-11T02:06:46;1.20;;;1.07;;
39256;SDS011;67272;48.066;11.038;2023-03-11T02:09:12;1.10;;;1.00;;
39256;SDS011;67272;48.066;11.038;2023-03-11T02:11:49;1.10;;;1.00;;
39256;SDS011;67272;48.066;11.038;2023-03-11T02:14:22;1.10;;;1.00;;
39256;SDS011;67272;48.066;11.038;2023-03-11T02:16:54;1.37;;;1.23;;
39256;SDS011;67272;48.066;11.038;2023-03-11T02:22:07;0.60;;;0.60;;
39256;SDS011;67272;48.066;11.038;2023-03-11T02:24:56;1.40;;;1.20;;
39256;SDS011;67272;48.066;11.038;2023-03-11T02:27:32;2.07;;;1.00;;
39256;SDS011;67272;48.066;11.038;2023-03-11T02:30:06;1.20;;;1.10;;
39256;SDS011;67272;48.066;11.038;2023-03-11T02:32:35;1.07;;;0.90;;
39256;SDS011;67272;48.066;11.038;2023-03-11T02:35:02;1.10;;;1.00;;
39256;SDS011;67272;48.066;11.038;2023-03-11T02:37:29;0.87;;;0.87;;
39256;SDS011;67272;48.066;11.038;2023-03-11T02:42:47;1.33;;;1.17;;
39256;SDS011;67272;48.066;11.038;2023-03-11T02:45:17;0.90;;;0.70;;
39256;SDS011;67272;48.066;11.038;2023-03-11T02:47:45;1.00;;;0.90;;
39256;SDS011;67272;48.066;11.038;2023-03-11T02:50:13;1.23;;;1.00;;
39256;SDS011;67272;48.066;11.038;2023-03-11T02:52:40;0.80;;;0.80;;
39256;SDS011;67272;48.066;11.038;2023-03-11T02:55:06;1.17;;;0.80;;
39256;SDS011;67272;48.066;11.038;2023-03-11T02:57:34;0.80;;;0.73;;
39256;SDS011;67272;48.066;11.038;2023-03-11T03:00:02;1.30;;;0.80;;
39256;SDS011;67272;48.066;11.038;2023-03-11T03:02:36;0.60;;;0.60;;
39256;SDS011;67272;48.066;11.038;2023-03-11T03:05:02;0.80;;;0.80;;
39256;SDS011;67272;48.066;11.038;2023-03-11T03:07:30;0.80;;;0.80;;
39256;SDS011;67272;48.066;11.038;2023-03-11T03:09:59;0.70;;;0.70;;
39256;SDS011;67272;48.066;11.038;2023-03-11T03:12:26;1.43;;;0.90;;
39256;SDS011;67272;48.066;11.038;2023-03-11T03:14:52;0.70;;;0.70;;
39256;SDS011;67272;48.066;11.038;2023-03-11T03:17:19;1.17;;;0.83;;
39256;SDS011;67272;48.066;11.038;2023-03-11T03:19:49;1.40;;;0.80;;
39256;SDS011;67272;48.066;11.038;2023-03-11T03:22:15;0.90;;;0.80;;
39256;SDS011;67272;48.066;11.038;2023-03-11T03:24:43;1.23;;;1.00;;
39256;SDS011;67272;48.066;11.038;2023-03-11T03:27:10;1.00;;;1.00;;
39256;SDS011;67272;48.066;11.038;2023-03-11T03:29:38;0.90;;;0.90;;
39256;SDS011;67272;48.066;11.038;2023-03-11T03:32:08;0.77;;;0.77;;
39256;SDS011;67272;48.066;11.038;2023-03-11T03:34:34;0.70;;;0.70;;
39256;SDS011;67272;48.066;11.038;2023-03-11T03:37:01;1.10;;;0.80;;
39256;SDS011;67272;48.066;11.038;2023-03-11T03:39:27;0.87;;;0.60;;
39256;SDS011;67272;48.066;11.038;2023-03-11T03:41:53;0.60;;;0.60;;
39256;SDS011;67272;48.066;11.038;2023-03-11T03:44:22;0.60;;;0.60;;
39256;SDS011;67272;48.066;11.038;2023-03-11T03:46:48;0.70;;;0.70;;
39256;SDS011;67272;48.066;11.038;2023-03-11T03:49:18;1.20;;;1.00;;
39256;SDS011;67272;48.066;11.038;2023-03-11T03:51:50;1.73;;;0.97;;
39256;SDS011;67272;48.066;11.038;2023-03-11T03:54:26;1.23;;;0.90;;
39256;SDS011;67272;48.066;11.038;2023-03-11T03:56:52;0.97;;;0.73;;
39256;SDS011;67272;48.066;11.038;2023-03-11T03:59:19;0.90;;;0.90;;
39256;SDS011;67272;48.066;11.038;2023-03-11T04:01:50;1.10;;;0.87;;
39256;SDS011;67272;48.066;11.038;2023-03-11T04:04:18;1.33;;;0.80;;
39256;SDS011;67272;48.066;11.038;2023-03-11T04:06:45;1.20;;;1.03;;
39256;SDS011;67272;48.066;11.038;2023-03-11T04:09:11;1.03;;;0.97;;
39256;SDS011;67272;48.066;11.038;2023-03-11T04:11:41;1.07;;;0.90;;
39256;SDS011;67272;48.066;11.038;2023-03-11T04:14:10;1.33;;;0.90;;
39256;SDS011;67272;48.066;11.038;2023-03-11T04:16:42;1.60;;;1.00;;
39256;SDS011;67272;48.066;11.038;2023-03-11T04:19:14;0.73;;;0.73;;
39256;SDS011;67272;48.066;11.038;2023-03-11T04:21:41;1.27;;;1.13;;
39256;SDS011;67272;48.066;11.038;2023-03-11T04:24:07;1.27;;;1.10;;
39256;SDS011;67272;48.066;11.038;2023-03-11T04:26:36;0.90;;;0.90;;
39256;SDS011;67272;48.066;11.038;2023-03-11T04:29:05;1.10;;;1.00;;
39256;SDS011;67272;48.066;11.038;2023-03-11T04:31:37;0.83;;;0.80;;
39256;SDS011;67272;48.066;11.038;2023-03-11T04:34:08;1.10;;;0.83;;
39256;SDS011;67272;48.066;11.038;2023-03-11T04:36:36;1.03;;;0.90;;
39256;SDS011;67272;48.066;11.038;2023-03-11T04:39:03;1.40;;;1.00;;
39256;SDS011;67272;48.066;11.038;2023-03-11T04:41:35;1.30;;;0.90;;
39256;SDS011;67272;48.066;11.038;2023-03-11T04:44:01;0.93;;;0.90;;
39256;SDS011;67272;48.066;11.038;2023-03-11T04:46:34;0.90;;;0.90;;
39256;SDS011;67272;48.066;11.038;2023-03-11T04:49:03;0.80;;;0.80;;
39256;SDS011;67272;48.066;11.038;2023-03-11T04:51:29;1.20;;;1.07;;
39256;SDS011;67272;48.066;11.038;2023-03-11T04:53:56;0.93;;;0.83;;
39256;SDS011;67272;48.066;11.038;2023-03-11T04:56:22;0.77;;;0.70;;
39256;SDS011;67272;48.066;11.038;2023-03-11T04:58:52;2.00;;;0.97;;
39256;SDS011;67272;48.066;11.038;2023-03-11T05:01:19;1.20;;;1.00;;
39256;SDS011;67272;48.066;11.038;2023-03-11T05:03:45;0.90;;;0.90;;
39256;SDS011;67272;48.066;11.038;2023-03-11T05:06:12;1.27;;;1.10;;
39256;SDS011;67272;48.066;11.038;2023-03-11T05:08:45;1.07;;;0.80;;
39256;SDS011;67272;48.066;11.038;2023-03-11T05:11:11;0.63;;;0.63;;
39256;SDS011;67272;48.066;11.038;2023-03-11T05:13:42;1.27;;;1.10;;
39256;SDS011;67272;48.066;11.038;2023-03-11T05:16:09;1.43;;;1.23;;
39256;SDS011;67272;48.066;11.038;2023-03-11T05:18:36;1.20;;;1.10;;
39256;SDS011;67272;48.066;11.038;2023-03-11T05:21:03;1.00;;;1.00;;
39256;SDS011;67272;48.066;11.038;2023-03-11T05:23:31;1.13;;;1.03;;
39256;SDS011;67272;48.066;11.038;2023-03-11T05:25:58;1.03;;;0.90;;
39256;SDS011;67272;48.066;11.038;2023-03-11T05:28:25;0.83;;;0.83;;
39256;SDS011;67272;48.066;11.038;2023-03-11T05:30:52;1.53;;;1.43;;
39256;SDS011;67272;48.066;11.038;2023-03-11T05:33:20;0.97;;;0.87;;
39256;SDS011;67272;48.066;11.038;2023-03-11T05:35:47;1.57;;;1.10;;
39256;SDS011;67272;48.066;11.038;2023-03-11T05:38:17;1.30;;;1.17;;
39256;SDS011;67272;48.066;11.038;2023-03-11T05:40:44;1.50;;;1.37;;
39256;SDS011;67272;48.066;11.038;2023-03-11T05:43:13;1.40;;;1.30;;
39256;SDS011;67272;48.066;11.038;2023-03-11T05:45:42;2.40;;;1.57;;
39256;SDS011;67272;48.066;11.038;2023-03-11T05:48:09;3.97;;;1.40;;
39256;SDS011;67272;48.066;11.038;2023-03-11T05:50:36;4.00;;;2.00;;
39256;SDS011;67272;48.066;11.038;2023-03-11T05:53:03;2.07;;;1.40;;
39256;SDS011;67272;48.066;11.038;2023-03-11T05:55:33;4.47;;;1.50;;
39256;SDS011;67272;48.066;11.038;2023-03-11T05:57:59;2.37;;;1.73;;
39256;SDS011;67272;48.066;11.038;2023-03-11T06:00:26;3.00;;;2.60;;
39256;SDS011;67272;48.066;11.038;2023-03-11T06:02:58;2.40;;;2.20;;
39256;SDS011;67272;48.066;11.038;2023-03-11T06:05:25;2.67;;;1.20;;
39256;SDS011;67272;48.066;11.038;2023-03-11T06:07:53;1.20;;;1.10;;
39256;SDS011;67272;48.066;11.038;2023-03-11T06:10:21;1.50;;;1.10;;
39256;SDS011;67272;48.066;11.038;2023-03-11T06:12:47;1.87;;;1.00;;
39256;SDS011;67272;48.066;11.038;2023-03-11T06:15:23;3.93;;;2.53;;
39256;SDS011;67272;48.066;11.038;2023-03-11T06:17:51;17.47;;;8.00;;
39256;SDS011;67272;48.066;11.038;2023-03-11T06:20:21;15.27;;;7.87;;
39256;SDS011;67272;48.066;11.038;2023-03-11T06:22:52;14.27;;;7.63;;
39256;SDS011;67272;48.066;11.038;2023-03-11T06:25:24;3.40;;;2.50;;
39256;SDS011;67272;48.066;11.038;2023-03-11T06:27:55;1.47;;;1.10;;
39256;SDS011;67272;48.066;11.038;2023-03-11T06:30:23;1.17;;;1.07;;
39256;SDS011;67272;48.066;11.038;2023-03-11T06:32:59;1.60;;;1.20;;
39256;SDS011;67272;48.066;11.038;2023-03-11T06:35:28;1.53;;;1.20;;
39256;SDS011;67272;48.066;11.038;2023-03-11T06:37:58;1.30;;;1.20;;
39256;SDS011;67272;48.066;11.038;2023-03-11T06:40:30;1.30;;;1.10;;
39256;SDS011;67272;48.066;11.038;2023-03-11T06:43:05;1.20;;;1.10;;
39256;SDS011;67272;48.066;11.038;2023-03-11T06:45:36;1.67;;;1.17;;
39256;SDS011;67272;48.066;11.038;2023-03-11T06:48:02;1.30;;;1.20;;
39256;SDS011;67272;48.066;11.038;2023-03-11T06:50:29;1.10;;;1.00;;
39256;SDS011;67272;48.066;11.038;2023-03-11T06:53:01;1.27;;;0.90;;
39256;SDS011;67272;48.066;11.038;2023-03-11T06:55:30;1.00;;;0.90;;
39256;SDS011;67272;48.066;11.038;2023-03-11T06:57:57;1.90;;;1.00;;
39256;SDS011;67272;48.066;11.038;2023-03-11T07:00:24;0.77;;;0.70;;
39256;SDS011;67272;48.066;11.038;2023-03-11T07:02:55;1.20;;;1.10;;
39256;SDS011;67272;48.066;11.038;2023-03-11T07:05:22;1.00;;;0.90;;
39256;SDS011;67272;48.066;11.038;2023-03-11T07:07:53;1.20;;;0.90;;
39256;SDS011;67272;48.066;11.038;2023-03-11T07:10:21;1.80;;;1.03;;
39256;SDS011;67272;48.066;11.038;2023-03-11T07:12:47;1.40;;;1.23;;
39256;SDS011;67272;48.066;11.038;2023-03-11T07:15:16;1.30;;;1.10;;
39256;SDS011;67272;48.066;11.038;2023-03-11T07:17:42;1.23;;;1.10;;
39256;SDS011;67272;48.066;11.038;2023-03-11T07:20:08;1.07;;;0.90;;
39256;SDS011;67272;48.066;11.038;2023-03-11T07:22:35;1.90;;;1.03;;
39256;SDS011;67272;48.066;11.038;2023-03-11T07:25:01;0.80;;;0.80;;
39256;SDS011;67272;48.066;11.038;2023-03-11T07:27:27;2.00;;;1.03;;
39256;SDS011;67272;48.066;11.038;2023-03-11T07:29:54;0.97;;;0.87;;
39256;SDS011;67272;48.066;11.038;2023-03-11T07:32:20;1.50;;;1.07;;
39256;SDS011;67272;48.066;11.038;2023-03-11T07:34:49;1.40;;;0.87;;
39256;SDS011;67272;48.066;11.038;2023-03-11T07:37:15;1.23;;;0.90;;
39256;SDS011;67272;48.066;11.038;2023-03-11T07:39:41;1.10;;;0.90;;
39256;SDS011;67272;48.066;11.038;2023-03-11T07:42:08;1.93;;;1.10;;
39256;SDS011;67272;48.066;11.038;2023-03-11T07:44:35;0.80;;;0.80;;
39256;SDS011;67272;48.066;11.038;2023-03-11T07:47:02;1.27;;;0.97;;
39256;SDS011;67272;48.066;11.038;2023-03-11T07:49:28;1.10;;;0.80;;
39256;SDS011;67272;48.066;11.038;2023-03-11T07:51:57;0.97;;;0.90;;
39256;SDS011;67272;48.066;11.038;2023-03-11T07:54:23;1.60;;;0.90;;
39256;SDS011;67272;48.066;11.038;2023-03-11T07:56:50;1.17;;;0.70;;
39256;SDS011;67272;48.066;11.038;2023-03-11T07:59:16;1.73;;;0.90;;
39256;SDS011;67272;48.066;11.038;2023-03-11T08:01:42;0.70;;;0.70;;
39256;SDS011;67272;48.066;11.038;2023-03-11T08:04:11;1.13;;;1.03;;
39256;SDS011;67272;48.066;11.038;2023-03-11T08:06:39;1.37;;;0.80;;
39256;SDS011;67272;48.066;11.038;2023-03-11T08:09:07;0.97;;;0.87;;
39256;SDS011;67272;48.066;11.038;2023-03-11T08:11:33;1.10;;;1.00;;
39256;SDS011;67272;48.066;11.038;2023-03-11T08:14:00;1.00;;;0.80;;
39256;SDS011;67272;48.066;11.038;2023-03-11T08:16:26;1.67;;;0.73;;
39256;SDS011;67272;48.066;11.038;2023-03-11T08:18:52;1.20;;;1.00;;
39256;SDS011;67272;48.066;11.038;2023-03-11T08:21:20;2.00;;;0.97;;
39256;SDS011;67272;48.066;11.038;2023-03-11T08:23:47;1.00;;;0.90;;
39256;SDS011;67272;48.066;11.038;2023-03-11T08:26:14;1.30;;;0.70;;
39256;SDS011;67272;48.066;11.038;2023-03-11T08:28:41;2.57;;;0.90;;
39256;SDS011;67272;48.066;11.038;2023-03-11T08:33:40;1.30;;;0.90;;
39256;SDS011;67272;48.066;11.038;2023-03-11T08:36:07;1.83;;;1.00;;
39256;SDS011;67272;48.066;11.038;2023-03-11T08:38:36;0.80;;;0.80;;
39256;SDS011;67272;48.066;11.038;2023-03-11T08:41:03;0.80;;;0.80;;
39256;SDS011;67272;48.066;11.038;2023-03-11T08:43:29;0.83;;;0.83;;
39256;SDS011;67272;48.066;11.038;2023-03-11T08:45:56;0.87;;;0.87;;
39256;SDS011;67272;48.066;11.038;2023-03-11T08:48:24;2.67;;;1.20;;
39256;SDS011;67272;48.066;11.038;2023-03-11T08:50:50;0.80;;;0.80;;
39256;SDS011;67272;48.066;11.038;2023-03-11T08:53:16;0.80;;;0.80;;
39256;SDS011;67272;48.066;11.038;2023-03-11T08:55:43;0.90;;;0.90;;
39256;SDS011;67272;48.066;11.038;2023-03-11T08:58:09;1.07;;;0.97;;
39256;SDS011;67272;48.066;11.038;2023-03-11T09:00:35;1.10;;;0.90;;
39256;SDS011;67272;48.066;11.038;2023-03-11T09:03:01;1.87;;;1.10;;
39256;SDS011;67272;48.066;11.038;2023-03-11T09:05:28;1.60;;;1.10;;
39256;SDS011;67272;48.066;11.038;2023-03-11T09:07:54;1.67;;;1.00;;
39256;SDS011;67272;48.066;11.038;2023-03-11T09:10:20;1.00;;;1.00;;
39256;SDS011;67272;48.066;11.038;2023-03-11T09:12:46;1.00;;;1.00;;
39256;SDS011;67272;48.066;11.038;2023-03-11T09:15:12;1.42;;;1.10;;
39256;SDS011;67272;48.066;11.038;2023-03-11T09:17:38;1.33;;;1.23;;
39256;SDS011;67272;48.066;11.038;2023-03-11T09:20:04;1.67;;;1.10;;
39256;SDS011;67272;48.066;11.038;2023-03-11T09:22:30;1.10;;;1.00;;
39256;SDS011;67272;48.066;11.038;2023-03-11T09:24:57;0.97;;;0.97;;
39256;SDS011;67272;48.066;11.038;2023-03-11T09:27:23;1.40;;;1.20;;
39256;SDS011;67272;48.066;11.038;2023-03-11T09:29:49;1.40;;;1.00;;
39256;SDS011;67272;48.066;11.038;2023-03-11T09:32:15;1.20;;;1.10;;
39256;SDS011;67272;48.066;11.038;2023-03-11T09:34:41;1.33;;;1.23;;
39256;SDS011;67272;48.066;11.038;2023-03-11T09:37:07;1.00;;;1.00;;
39256;SDS011;67272;48.066;11.038;2023-03-11T09:39:33;0.95;;;0.95;;
39256;SDS011;67272;48.066;11.038;2023-03-11T09:42:19;1.20;;;1.10;;
39256;SDS011;67272;48.066;11.038;2023-03-11T09:44:53;1.55;;;1.20;;
39256;SDS011;67272;48.066;11.038;2023-03-11T09:54:52;0.90;;;0.90;;
39256;SDS011;67272;48.066;11.038;2023-03-11T09:57:23;1.25;;;0.95;;
39256;SDS011;67272;48.066;11.038;2023-03-11T09:59:53;1.27;;;0.98;;
39256;SDS011;67272;48.066;11.038;2023-03-11T10:02:21;1.10;;;1.00;;
39256;SDS011;67272;48.066;11.038;2023-03-11T10:04:53;0.95;;;0.82;;
39256;SDS011;67272;48.066;11.038;2023-03-11T10:07:26;1.35;;;1.25;;
39256;SDS011;67272;48.066;11.038;2023-03-11T10:09:54;1.03;;;0.93;;
39256;SDS011;67272;48.066;11.038;2023-03-11T10:12:28;3.13;;;1.17;;
39256;SDS011;67272;48.066;11.038;2023-03-11T10:22:48;1.50;;;1.10;;
39256;SDS011;67272;48.066;11.038;2023-03-11T10:25:24;0.90;;;0.90;;
39256;SDS011;67272;48.066;11.038;2023-03-11T10:28:01;1.30;;;1.00;;
39256;SDS011;67272;48.066;11.038;2023-03-11T10:33:03;1.10;;;1.00;;
39256;SDS011;67272;48.066;11.038;2023-03-11T10:35:41;0.87;;;0.87;;
39256;SDS011;67272;48.066;11.038;2023-03-11T10:40:42;3.03;;;1.00;;
39256;SDS011;67272;48.066;11.038;2023-03-11T10:43:10;1.07;;;0.90;;
39256;SDS011;67272;48.066;11.038;2023-03-11T10:45:38;1.70;;;0.97;;
39256;SDS011;67272;48.066;11.038;2023-03-11T10:48:08;1.23;;;0.80;;
39256;SDS011;67272;48.066;11.038;2023-03-11T10:50:34;1.07;;;0.80;;
39256;SDS011;67272;48.066;11.038;2023-03-11T10:53:08;0.80;;;0.80;;
39256;SDS011;67272;48.066;11.038;2023-03-11T10:55:35;1.33;;;0.90;;
39256;SDS011;67272;48.066;11.038;2023-03-11T10:58:11;1.23;;;1.00;;
39256;SDS011;67272;48.066;11.038;2023-03-11T11:00:37;1.33;;;1.00;;
39256;SDS011;67272;48.066;11.038;2023-03-11T11:03:03;1.00;;;0.90;;
39256;SDS011;67272;48.066;11.038;2023-03-11T11:05:31;0.85;;;0.80;;
39256;SDS011;67272;48.066;11.038;2023-03-11T11:08:16;1.15;;;1.05;;
39256;SDS011;67272;48.066;11.038;2023-03-11T11:10:57;1.17;;;1.02;;
39256;SDS011;67272;48.066;11.038;2023-03-11T11:13:25;1.23;;;1.10;;
39256;SDS011;67272;48.066;11.038;2023-03-11T11:15:52;1.42;;;0.98;;
39256;SDS011;67272;48.066;11.038;2023-03-11T11:20:53;1.10;;;1.00;;
39256;SDS011;67272;48.066;11.038;2023-03-11T11:26:15;1.55;;;0.95;;
39256;SDS011;67272;48.066;11.038;2023-03-11T11:28:41;1.10;;;1.00;;
39256;SDS011;67272;48.066;11.038;2023-03-11T11:31:24;0.88;;;0.88;;
39256;SDS011;67272;48.066;11.038;2023-03-11T11:33:52;0.88;;;0.88;;
39256;SDS011;67272;48.066;11.038;2023-03-11T11:36:18;1.00;;;0.90;;
39256;SDS011;67272;48.066;11.038;2023-03-11T11:38:45;1.00;;;0.90;;
39256;SDS011;67272;48.066;11.038;2023-03-11T11:41:12;1.00;;;0.90;;
39256;SDS011;67272;48.066;11.038;2023-03-11T11:43:41;0.90;;;0.90;;
39256;SDS011;67272;48.066;11.038;2023-03-11T11:46:10;0.90;;;0.90;;
39256;SDS011;67272;48.066;11.038;2023-03-11T11:49:01;1.00;;;1.00;;
39256;SDS011;67272;48.066;11.038;2023-03-11T11:51:32;1.15;;;1.00;;
39256;SDS011;67272;48.066;11.038;2023-03-11T11:56:31;1.10;;;0.90;;
39256;SDS011;67272;48.066;11.038;2023-03-11T11:58:57;1.00;;;0.90;;
39256;SDS011;67272;48.066;11.038;2023-03-11T12:09:16;1.83;;;1.45;;
39256;SDS011;67272;48.066;11.038;2023-03-11T12:12:07;1.27;;;1.17;;
39256;SDS011;67272;48.066;11.038;2023-03-11T12:14:42;2.47;;;1.65;;
39256;SDS011;67272;48.066;11.038;2023-03-11T12:17:11;1.30;;;1.20;;
39256;SDS011;67272;48.066;11.038;2023-03-11T12:19:43;1.77;;;1.40;;
39256;SDS011;67272;48.066;11.038;2023-03-11T12:27:21;1.40;;;1.23;;
39256;SDS011;67272;48.066;11.038;2023-03-11T12:29:49;1.10;;;0.93;;
39256;SDS011;67272;48.066;11.038;2023-03-11T12:32:31;1.45;;;1.13;;
39256;SDS011;67272;48.066;11.038;2023-03-11T12:37:39;1.85;;;1.20;;
39256;SDS011;67272;48.066;11.038;2023-03-11T12:42:51;1.33;;;1.00;;
39256;SDS011;67272;48.066;11.038;2023-03-11T12:50:48;2.03;;;1.30;;
39256;SDS011;67272;48.066;11.038;2023-03-11T12:53:17;1.38;;;0.95;;
39256;SDS011;67272;48.066;11.038;2023-03-11T12:55:55;1.52;;;1.10;;
39256;SDS011;67272;48.066;11.038;2023-03-11T12:58:29;1.27;;;1.17;;
39256;SDS011;67272;48.066;11.038;2023-03-11T13:03:36;1.33;;;1.15;;
39256;SDS011;67272;48.066;11.038;2023-03-11T13:08:53;1.15;;;1.10;;
39256;SDS011;67272;48.066;11.038;2023-03-11T13:16:42;1.05;;;0.95;;
39256;SDS011;67272;48.066;11.038;2023-03-11T13:21:51;1.98;;;1.10;;
39256;SDS011;67272;48.066;11.038;2023-03-11T13:32:22;1.30;;;1.20;;
39256;SDS011;67272;48.066;11.038;2023-03-11T13:37:28;1.30;;;1.20;;
39256;SDS011;67272;48.066;11.038;2023-03-11T13:42:46;1.30;;;1.20;;
39256;SDS011;67272;48.066;11.038;2023-03-11T13:45:27;1.27;;;1.13;;
39256;SDS011;67272;48.066;11.038;2023-03-11T13:48:10;1.27;;;1.17;;
39256;SDS011;67272;48.066;11.038;2023-03-11T13:50:40;1.25;;;1.15;;
39256;SDS011;67272;48.066;11.038;2023-03-11T13:53:12;1.30;;;1.20;;
39256;SDS011;67272;48.066;11.038;2023-03-11T13:55:42;1.42;;;1.33;;
39256;SDS011;67272;48.066;11.038;2023-03-11T13:58:28;1.85;;;1.50;;
39256;SDS011;67272;48.066;11.038;2023-03-11T14:00:55;1.20;;;1.10;;
39256;SDS011;67272;48.066;11.038;2023-03-11T14:03:23;2.33;;;1.50;;
39256;SDS011;67272;48.066;11.038;2023-03-11T14:06:03;2.08;;;1.80;;
39256;SDS011;67272;48.066;11.038;2023-03-11T14:08:34;1.63;;;1.42;;
39256;SDS011;67272;48.066;11.038;2023-03-11T14:11:02;1.67;;;1.58;;
39256;SDS011;67272;48.066;11.038;2023-03-11T14:13:32;1.30;;;1.20;;
39256;SDS011;67272;48.066;11.038;2023-03-11T14:16:05;1.30;;;1.17;;
39256;SDS011;67272;48.066;11.038;2023-03-11T14:18:33;0.95;;;0.95;;
39256;SDS011;67272;48.066;11.038;2023-03-11T14:21:01;1.25;;;1.15;;
39256;SDS011;67272;48.066;11.038;2023-03-11T14:23:51;1.13;;;1.02;;
39256;SDS011;67272;48.066;11.038;2023-03-11T14:28:48;1.10;;;1.00;;
39256;SDS011;67272;48.066;11.038;2023-03-11T14:31:20;1.23;;;1.13;;
39256;SDS011;67272;48.066;11.038;2023-03-11T14:33:55;1.30;;;1.20;;
39256;SDS011;67272;48.066;11.038;2023-03-11T14:36:25;1.23;;;1.13;;
39256;SDS011;67272;48.066;11.038;2023-03-11T14:38:54;1.15;;;1.10;;
39256;SDS011;67272;48.066;11.038;2023-03-11T14:41:20;1.33;;;1.00;;
39256;SDS011;67272;48.066;11.038;2023-03-11T14:43:47;1.20;;;1.10;;
39256;SDS011;67272;48.066;11.038;2023-03-11T14:46:19;1.38;;;1.20;;
39256;SDS011;67272;48.066;11.038;2023-03-11T14:48:47;1.98;;;1.20;;
39256;SDS011;67272;48.066;11.038;2023-03-11T14:51:16;1.15;;;1.13;;
39256;SDS011;67272;48.066;11.038;2023-03-11T14:53:44;1.42;;;1.20;;
39256;SDS011;67272;48.066;11.038;2023-03-11T14:56:15;1.30;;;1.20;;
39256;SDS011;67272;48.066;11.038;2023-03-11T14:58:46;2.08;;;1.27;;
39256;SDS011;67272;48.066;11.038;2023-03-11T15:01:47;1.33;;;1.23;;
39256;SDS011;67272;48.066;11.038;2023-03-11T15:04:11;1.45;;;1.35;;
39256;SDS011;67272;48.066;11.038;2023-03-11T15:06:38;1.52;;;1.42;;
39256;SDS011;67272;48.066;11.038;2023-03-11T15:09:12;1.52;;;1.42;;
39256;SDS011;67272;48.066;11.038;2023-03-11T15:11:43;1.25;;;1.20;;
39256;SDS011;67272;48.066;11.038;2023-03-11T15:14:29;2.00;;;1.83;;
39256;SDS011;67272;48.066;11.038;2023-03-11T15:17:08;1.50;;;1.20;;
39256;SDS011;67272;48.066;11.038;2023-03-11T15:19:34;1.33;;;1.23;;
39256;SDS011;67272;48.066;11.038;2023-03-11T15:22:36;1.45;;;1.30;;
39256;SDS011;67272;48.066;11.038;2023-03-11T15:24:56;1.13;;;1.02;;
39256;SDS011;67272;48.066;11.038;2023-03-11T15:27:33;1.27;;;1.17;;
39256;SDS011;67272;48.066;11.038;2023-03-11T15:29:59;1.50;;;1.40;;
39256;SDS011;67272;48.066;11.038;2023-03-11T15:32:41;1.65;;;1.20;;
39256;SDS011;67272;48.066;11.038;2023-03-11T15:37:35;1.48;;;1.30;;
39256;SDS011;67272;48.066;11.038;2023-03-11T15:42:43;1.50;;;1.40;;
39256;SDS011;67272;48.066;11.038;2023-03-11T15:45:10;1.30;;;1.20;;
39256;SDS011;67272;48.066;11.038;2023-03-11T15:47:36;1.63;;;1.30;;
39256;SDS011;67272;48.066;11.038;2023-03-11T15:50:44;2.63;;;1.67;;
39256;SDS011;67272;48.066;11.038;2023-03-11T15:52:56;1.97;;;1.50;;
39256;SDS011;67272;48.066;11.038;2023-03-11T15:55:24;1.50;;;1.40;;
39256;SDS011;67272;48.066;11.038;2023-03-11T15:57:59;2.10;;;1.60;;
39256;SDS011;67272;48.066;11.038;2023-03-11T16:00:26;1.67;;;1.50;;
39256;SDS011;67272;48.066;11.038;2023-03-11T16:02:53;2.33;;;1.57;;
39256;SDS011;67272;48.066;11.038;2023-03-11T16:05:20;2.13;;;1.50;;
39256;SDS011;67272;48.066;11.038;2023-03-11T16:07:47;1.50;;;1.40;;
39256;SDS011;67272;48.066;11.038;2023-03-11T16:10:14;1.60;;;1.40;;
39256;SDS011;67272;48.066;11.038;2023-03-11T16:12:40;1.50;;;1.40;;
39256;SDS011;67272;48.066;11.038;2023-03-11T16:17:52;1.83;;;1.50;;
39256;SDS011;67272;48.066;11.038;2023-03-11T16:20:19;2.10;;;1.90;;
39256;SDS011;67272;48.066;11.038;2023-03-11T16:22:46;1.83;;;1.40;;